Portada
METAR-TAF:

METAR-TAF

Aeroports :

Hua Hin, Tailàndia

latitud: 12-35N, longitud: 099-57E, altitud: 5 m

Observació

L'informe es va fer fa 7 hores i 22 minuts, a les 11:00 UTC
Vent 10 kt del Sud/Sud-Est, variant entre Sud-Est i Sud
Temperatura 31°C
Humitat 84%
Pressió 1006 hPa
Visibilitat 10 km o més
Escasses núvols a una alçada de 2800 ft

METAR: VTPH 181100Z 16010KT 130V190 9999 FEW028 31/28 Q1006 NOSIG

Hora: 01:22 (18:22 UTC)

Pronòstic

L'informe es va fer fa 1 hora i 22 minuts, a les 17:00 UTC
Pronòstic vàlid del 18 a les 18 UTC al 19 a les 18 UTC
Vent kt del Nord
Visibilitat 10 km o més
Escasses núvols a una alçada de 3000 ft
Evolucionant progressivament
l' 19 a les 02 UTC al 19 a les 04 UTC
Vent 10 kt del Sud-Est
Evolucionant progressivament
l' 19 a les 14 UTC al 19 a les 16 UTC
Vent kt del Nord

TAF: VTPH 181700Z 1818/1918 00000KT 9999 FEW030 BECMG 1902/1904 14010KT BECMG 1914/1916 00000KT

Observacions i pronòstics meteorològics de més de 4000 aeroports (METAR i TAF).

Les estacions disponibles són els punts grocs i vermells al mapa.

Posi el ratolí al punt desitjat per veure el nom de l'estació.

Feu clic per veure les observacions i els pronòstics meteorològics.

Per canviar el mapa: feu clic els botons verds amb una creu de color negre per apropar; al botó verd amb un guió per allunyar la imatge; o en les fletxes verdes per a mapes adjacents.


METAR-TAF: